sensor_id;sensor_type;location;lat;lon;timestamp;P1;durP1;ratioP1;P2;durP2;ratioP2
49590;SDS011;35496;-21.974;-46.800;2023-03-01T00:02:06;1.83;;;1.02;;
49590;SDS011;35496;-21.974;-46.800;2023-03-01T00:04:32;0.55;;;0.50;;
49590;SDS011;35496;-21.974;-46.800;2023-03-01T00:06:59;0.50;;;0.50;;
49590;SDS011;35496;-21.974;-46.800;2023-03-01T00:09:25;0.55;;;0.50;;
49590;SDS011;35496;-21.974;-46.800;2023-03-01T00:11:51;2.22;;;0.60;;
49590;SDS011;35496;-21.974;-46.800;2023-03-01T00:14:17;1.45;;;0.80;;
49590;SDS011;35496;-21.974;-46.800;2023-03-01T00:16:43;2.70;;;1.33;;
49590;SDS011;35496;-21.974;-46.800;2023-03-01T00:19:11;1.80;;;0.65;;
49590;SDS011;35496;-21.974;-46.800;2023-03-01T00:21:37;1.98;;;0.77;;
49590;SDS011;35496;-21.974;-46.800;2023-03-01T00:24:03;1.40;;;0.88;;
49590;SDS011;35496;-21.974;-46.800;2023-03-01T00:26:30;2.08;;;0.57;;
49590;SDS011;35496;-21.974;-46.800;2023-03-01T00:28:58;1.50;;;0.50;;
49590;SDS011;35496;-21.974;-46.800;2023-03-01T00:31:25;1.40;;;0.70;;
49590;SDS011;35496;-21.974;-46.800;2023-03-01T00:33:58;0.40;;;0.30;;
49590;SDS011;35496;-21.974;-46.800;2023-03-01T00:36:25;0.50;;;0.45;;
49590;SDS011;35496;-21.974;-46.800;2023-03-01T00:38:51;1.90;;;0.85;;
49590;SDS011;35496;-21.974;-46.800;2023-03-01T00:41:18;2.65;;;0.88;;
49590;SDS011;35496;-21.974;-46.800;2023-03-01T00:43:44;2.47;;;0.63;;
49590;SDS011;35496;-21.974;-46.800;2023-03-01T00:46:13;2.33;;;0.88;;
49590;SDS011;35496;-21.974;-46.800;2023-03-01T00:48:40;1.27;;;0.65;;
49590;SDS011;35496;-21.974;-46.800;2023-03-01T00:51:13;2.88;;;0.63;;
49590;SDS011;35496;-21.974;-46.800;2023-03-01T00:53:40;17.80;;;2.35;;
49590;SDS011;35496;-21.974;-46.800;2023-03-01T00:56:06;2.05;;;0.70;;
49590;SDS011;35496;-21.974;-46.800;2023-03-01T00:58:33;0.93;;;0.70;;
49590;SDS011;35496;-21.974;-46.800;2023-03-01T01:00:59;2.15;;;0.90;;
49590;SDS011;35496;-21.974;-46.800;2023-03-01T01:03:25;5.35;;;1.20;;
49590;SDS011;35496;-21.974;-46.800;2023-03-01T01:05:52;4.88;;;1.08;;
49590;SDS011;35496;-21.974;-46.800;2023-03-01T01:08:19;2.83;;;0.93;;
49590;SDS011;35496;-21.974;-46.800;2023-03-01T01:10:46;1.30;;;0.95;;
49590;SDS011;35496;-21.974;-46.800;2023-03-01T01:13:12;0.95;;;0.95;;
49590;SDS011;35496;-21.974;-46.800;2023-03-01T01:15:38;3.42;;;1.33;;
49590;SDS011;35496;-21.974;-46.800;2023-03-01T01:18:04;1.35;;;0.57;;
49590;SDS011;35496;-21.974;-46.800;2023-03-01T01:20:31;2.15;;;0.43;;
49590;SDS011;35496;-21.974;-46.800;2023-03-01T01:22:59;1.75;;;0.40;;
49590;SDS011;35496;-21.974;-46.800;2023-03-01T01:25:25;1.30;;;0.47;;
49590;SDS011;35496;-21.974;-46.800;2023-03-01T01:27:51;2.35;;;0.70;;
49590;SDS011;35496;-21.974;-46.800;2023-03-01T01:30:17;1.08;;;0.65;;
49590;SDS011;35496;-21.974;-46.800;2023-03-01T01:32:43;34.83;;;3.90;;
49590;SDS011;35496;-21.974;-46.800;2023-03-01T01:35:09;1.10;;;0.70;;
49590;SDS011;35496;-21.974;-46.800;2023-03-01T01:37:35;1.33;;;1.00;;
49590;SDS011;35496;-21.974;-46.800;2023-03-01T01:40:01;1.95;;;0.98;;
49590;SDS011;35496;-21.974;-46.800;2023-03-01T01:42:29;3.90;;;1.23;;
49590;SDS011;35496;-21.974;-46.800;2023-03-01T01:47:40;3.25;;;1.85;;
49590;SDS011;35496;-21.974;-46.800;2023-03-01T01:50:08;1.85;;;1.08;;
49590;SDS011;35496;-21.974;-46.800;2023-03-01T01:52:35;3.00;;;1.02;;
49590;SDS011;35496;-21.974;-46.800;2023-03-01T01:55:06;1.10;;;1.00;;
49590;SDS011;35496;-21.974;-46.800;2023-03-01T01:57:55;3.10;;;1.63;;
49590;SDS011;35496;-21.974;-46.800;2023-03-01T02:00:21;1.13;;;1.02;;
49590;SDS011;35496;-21.974;-46.800;2023-03-01T02:02:48;1.42;;;1.33;;
49590;SDS011;35496;-21.974;-46.800;2023-03-01T02:07:49;0.60;;;0.60;;
49590;SDS011;35496;-21.974;-46.800;2023-03-01T02:10:15;2.17;;;1.75;;
49590;SDS011;35496;-21.974;-46.800;2023-03-01T02:12:41;2.85;;;0.95;;
49590;SDS011;35496;-21.974;-46.800;2023-03-01T02:15:08;1.27;;;1.02;;
49590;SDS011;35496;-21.974;-46.800;2023-03-01T02:17:34;2.83;;;1.45;;
49590;SDS011;35496;-21.974;-46.800;2023-03-01T02:22:32;2.05;;;1.23;;
49590;SDS011;35496;-21.974;-46.800;2023-03-01T02:27:40;2.90;;;1.20;;
49590;SDS011;35496;-21.974;-46.800;2023-03-01T02:30:06;1.17;;;0.70;;
49590;SDS011;35496;-21.974;-46.800;2023-03-01T02:32:33;1.58;;;1.23;;
49590;SDS011;35496;-21.974;-46.800;2023-03-01T02:35:00;0.52;;;0.43;;
49590;SDS011;35496;-21.974;-46.800;2023-03-01T02:37:27;0.93;;;0.90;;
49590;SDS011;35496;-21.974;-46.800;2023-03-01T02:39:56;1.63;;;0.77;;
49590;SDS011;35496;-21.974;-46.800;2023-03-01T02:42:25;1.80;;;1.70;;
49590;SDS011;35496;-21.974;-46.800;2023-03-01T02:44:52;1.85;;;1.45;;
49590;SDS011;35496;-21.974;-46.800;2023-03-01T02:47:19;3.92;;;1.02;;
49590;SDS011;35496;-21.974;-46.800;2023-03-01T02:49:45;5.18;;;1.50;;
49590;SDS011;35496;-21.974;-46.800;2023-03-01T02:57:31;0.60;;;0.60;;
49590;SDS011;35496;-21.974;-46.800;2023-03-01T02:59:59;2.00;;;1.15;;
49590;SDS011;35496;-21.974;-46.800;2023-03-01T03:02:27;3.30;;;1.13;;
49590;SDS011;35496;-21.974;-46.800;2023-03-01T03:05:08;3.28;;;1.17;;
49590;SDS011;35496;-21.974;-46.800;2023-03-01T03:07:35;2.30;;;1.17;;
49590;SDS011;35496;-21.974;-46.800;2023-03-01T03:10:03;1.60;;;0.82;;
49590;SDS011;35496;-21.974;-46.800;2023-03-01T03:12:29;0.80;;;0.77;;
49590;SDS011;35496;-21.974;-46.800;2023-03-01T03:14:55;2.05;;;0.82;;
49590;SDS011;35496;-21.974;-46.800;2023-03-01T03:17:21;2.20;;;1.05;;
49590;SDS011;35496;-21.974;-46.800;2023-03-01T03:19:47;2.15;;;0.88;;
49590;SDS011;35496;-21.974;-46.800;2023-03-01T03:22:14;1.65;;;1.05;;
49590;SDS011;35496;-21.974;-46.800;2023-03-01T03:24:40;1.30;;;1.08;;
49590;SDS011;35496;-21.974;-46.800;2023-03-01T03:27:06;2.70;;;1.15;;
49590;SDS011;35496;-21.974;-46.800;2023-03-01T03:29:33;2.97;;;2.10;;
49590;SDS011;35496;-21.974;-46.800;2023-03-01T03:31:59;10.13;;;2.25;;
49590;SDS011;35496;-21.974;-46.800;2023-03-01T03:34:25;4.13;;;1.70;;
49590;SDS011;35496;-21.974;-46.800;2023-03-01T03:36:54;3.40;;;1.25;;
49590;SDS011;35496;-21.974;-46.800;2023-03-01T03:39:25;8.13;;;1.83;;
49590;SDS011;35496;-21.974;-46.800;2023-03-01T03:42:00;3.90;;;1.65;;
49590;SDS011;35496;-21.974;-46.800;2023-03-01T03:44:26;1.85;;;0.73;;
49590;SDS011;35496;-21.974;-46.800;2023-03-01T03:46:52;1.65;;;0.82;;
49590;SDS011;35496;-21.974;-46.800;2023-03-01T03:49:19;3.28;;;1.23;;
49590;SDS011;35496;-21.974;-46.800;2023-03-01T03:51:45;3.60;;;0.95;;
49590;SDS011;35496;-21.974;-46.800;2023-03-01T03:54:12;2.85;;;0.95;;
49590;SDS011;35496;-21.974;-46.800;2023-03-01T03:56:38;0.93;;;0.88;;
49590;SDS011;35496;-21.974;-46.800;2023-03-01T03:59:05;3.95;;;1.23;;
49590;SDS011;35496;-21.974;-46.800;2023-03-01T04:01:31;1.92;;;0.60;;
49590;SDS011;35496;-21.974;-46.800;2023-03-01T04:03:59;8.80;;;1.67;;
49590;SDS011;35496;-21.974;-46.800;2023-03-01T04:06:29;1.83;;;0.80;;
49590;SDS011;35496;-21.974;-46.800;2023-03-01T04:08:55;4.53;;;1.63;;
49590;SDS011;35496;-21.974;-46.800;2023-03-01T04:11:25;1.10;;;0.95;;
49590;SDS011;35496;-21.974;-46.800;2023-03-01T04:13:55;1.50;;;1.10;;
49590;SDS011;35496;-21.974;-46.800;2023-03-01T04:16:21;0.98;;;0.70;;
49590;SDS011;35496;-21.974;-46.800;2023-03-01T04:18:47;0.95;;;0.65;;
49590;SDS011;35496;-21.974;-46.800;2023-03-01T04:21:15;3.58;;;1.38;;
49590;SDS011;35496;-21.974;-46.800;2023-03-01T04:23:41;6.70;;;1.58;;
49590;SDS011;35496;-21.974;-46.800;2023-03-01T04:26:07;4.15;;;1.98;;
49590;SDS011;35496;-21.974;-46.800;2023-03-01T04:28:34;2.42;;;1.52;;
49590;SDS011;35496;-21.974;-46.800;2023-03-01T04:31:06;2.35;;;1.27;;
49590;SDS011;35496;-21.974;-46.800;2023-03-01T04:33:41;20.92;;;3.33;;
49590;SDS011;35496;-21.974;-46.800;2023-03-01T04:36:08;5.28;;;1.88;;
49590;SDS011;35496;-21.974;-46.800;2023-03-01T04:38:35;2.33;;;1.65;;
49590;SDS011;35496;-21.974;-46.800;2023-03-01T04:41:03;3.35;;;1.90;;
49590;SDS011;35496;-21.974;-46.800;2023-03-01T04:43:29;2.78;;;1.27;;
49590;SDS011;35496;-21.974;-46.800;2023-03-01T04:45:59;2.15;;;1.00;;
49590;SDS011;35496;-21.974;-46.800;2023-03-01T04:48:29;6.43;;;1.40;;
49590;SDS011;35496;-21.974;-46.800;2023-03-01T04:50:55;2.70;;;1.85;;
49590;SDS011;35496;-21.974;-46.800;2023-03-01T04:53:21;3.55;;;1.58;;
49590;SDS011;35496;-21.974;-46.800;2023-03-01T04:55:47;1.05;;;1.00;;
49590;SDS011;35496;-21.974;-46.800;2023-03-01T04:58:13;2.55;;;1.27;;
49590;SDS011;35496;-21.974;-46.800;2023-03-01T05:00:39;4.25;;;1.70;;
49590;SDS011;35496;-21.974;-46.800;2023-03-01T05:03:05;1.85;;;0.93;;
49590;SDS011;35496;-21.974;-46.800;2023-03-01T05:05:33;1.52;;;1.23;;
49590;SDS011;35496;-21.974;-46.800;2023-03-01T05:08:00;4.07;;;1.55;;
49590;SDS011;35496;-21.974;-46.800;2023-03-01T05:10:27;2.38;;;1.15;;
49590;SDS011;35496;-21.974;-46.800;2023-03-01T05:12:57;3.50;;;1.15;;
49590;SDS011;35496;-21.974;-46.800;2023-03-01T05:15:27;3.67;;;1.23;;
49590;SDS011;35496;-21.974;-46.800;2023-03-01T05:17:54;1.58;;;1.13;;
49590;SDS011;35496;-21.974;-46.800;2023-03-01T05:20:20;1.95;;;1.05;;
49590;SDS011;35496;-21.974;-46.800;2023-03-01T05:22:51;2.85;;;0.82;;
49590;SDS011;35496;-21.974;-46.800;2023-03-01T05:25:18;3.03;;;1.23;;
49590;SDS011;35496;-21.974;-46.800;2023-03-01T05:27:44;3.22;;;1.52;;
49590;SDS011;35496;-21.974;-46.800;2023-03-01T05:30:10;7.47;;;2.28;;
49590;SDS011;35496;-21.974;-46.800;2023-03-01T05:32:46;2.55;;;1.33;;
49590;SDS011;35496;-21.974;-46.800;2023-03-01T05:35:13;8.98;;;1.70;;
49590;SDS011;35496;-21.974;-46.800;2023-03-01T05:37:40;2.72;;;1.02;;
49590;SDS011;35496;-21.974;-46.800;2023-03-01T05:40:07;2.83;;;1.15;;
49590;SDS011;35496;-21.974;-46.800;2023-03-01T05:42:51;1.30;;;1.20;;
49590;SDS011;35496;-21.974;-46.800;2023-03-01T05:45:17;3.00;;;1.15;;
49590;SDS011;35496;-21.974;-46.800;2023-03-01T05:47:44;1.20;;;1.10;;
49590;SDS011;35496;-21.974;-46.800;2023-03-01T05:50:14;2.17;;;1.10;;
49590;SDS011;35496;-21.974;-46.800;2023-03-01T05:52:48;1.67;;;1.30;;
49590;SDS011;35496;-21.974;-46.800;2023-03-01T05:55:15;1.67;;;1.08;;
49590;SDS011;35496;-21.974;-46.800;2023-03-01T05:57:41;2.45;;;1.08;;
49590;SDS011;35496;-21.974;-46.800;2023-03-01T06:00:07;5.65;;;1.95;;
49590;SDS011;35496;-21.974;-46.800;2023-03-01T06:02:34;2.03;;;0.80;;
49590;SDS011;35496;-21.974;-46.800;2023-03-01T06:05:00;2.33;;;1.60;;
49590;SDS011;35496;-21.974;-46.800;2023-03-01T06:07:26;1.00;;;1.00;;
49590;SDS011;35496;-21.974;-46.800;2023-03-01T06:09:52;1.88;;;0.90;;
49590;SDS011;35496;-21.974;-46.800;2023-03-01T06:12:18;3.63;;;1.92;;
49590;SDS011;35496;-21.974;-46.800;2023-03-01T06:14:44;2.88;;;1.23;;
49590;SDS011;35496;-21.974;-46.800;2023-03-01T06:17:10;5.38;;;1.40;;
49590;SDS011;35496;-21.974;-46.800;2023-03-01T06:19:36;2.95;;;1.63;;
49590;SDS011;35496;-21.974;-46.800;2023-03-01T06:22:02;1.30;;;1.20;;
49590;SDS011;35496;-21.974;-46.800;2023-03-01T06:24:28;1.88;;;0.88;;
49590;SDS011;35496;-21.974;-46.800;2023-03-01T06:26:54;2.88;;;1.35;;
49590;SDS011;35496;-21.974;-46.800;2023-03-01T06:29:21;4.10;;;1.70;;
49590;SDS011;35496;-21.974;-46.800;2023-03-01T06:31:48;5.32;;;1.05;;
49590;SDS011;35496;-21.974;-46.800;2023-03-01T06:34:14;4.18;;;2.28;;
49590;SDS011;35496;-21.974;-46.800;2023-03-01T06:36:40;2.45;;;1.40;;
49590;SDS011;35496;-21.974;-46.800;2023-03-01T06:39:06;1.33;;;1.20;;
49590;SDS011;35496;-21.974;-46.800;2023-03-01T06:41:33;5.53;;;1.83;;
49590;SDS011;35496;-21.974;-46.800;2023-03-01T06:43:59;12.18;;;1.45;;
49590;SDS011;35496;-21.974;-46.800;2023-03-01T06:46:25;3.53;;;1.02;;
49590;SDS011;35496;-21.974;-46.800;2023-03-01T06:48:51;3.22;;;1.50;;
49590;SDS011;35496;-21.974;-46.800;2023-03-01T06:51:17;1.80;;;1.48;;
49590;SDS011;35496;-21.974;-46.800;2023-03-01T06:53:45;1.58;;;1.48;;
49590;SDS011;35496;-21.974;-46.800;2023-03-01T06:56:11;3.25;;;1.52;;
49590;SDS011;35496;-21.974;-46.800;2023-03-01T06:58:37;3.22;;;1.60;;
49590;SDS011;35496;-21.974;-46.800;2023-03-01T07:01:07;1.40;;;1.30;;
49590;SDS011;35496;-21.974;-46.800;2023-03-01T07:03:33;1.95;;;1.25;;
49590;SDS011;35496;-21.974;-46.800;2023-03-01T07:05:59;4.03;;;1.83;;
49590;SDS011;35496;-21.974;-46.800;2023-03-01T07:08:25;2.53;;;1.45;;
49590;SDS011;35496;-21.974;-46.800;2023-03-01T07:10:55;2.47;;;1.13;;
49590;SDS011;35496;-21.974;-46.800;2023-03-01T07:13:21;5.35;;;0.98;;
49590;SDS011;35496;-21.974;-46.800;2023-03-01T07:15:47;3.58;;;2.03;;
49590;SDS011;35496;-21.974;-46.800;2023-03-01T07:18:13;7.88;;;1.83;;
49590;SDS011;35496;-21.974;-46.800;2023-03-01T07:20:39;1.33;;;1.23;;
49590;SDS011;35496;-21.974;-46.800;2023-03-01T07:23:05;2.05;;;1.40;;
49590;SDS011;35496;-21.974;-46.800;2023-03-01T07:25:32;5.18;;;1.60;;
49590;SDS011;35496;-21.974;-46.800;2023-03-01T07:27:58;9.85;;;2.17;;
49590;SDS011;35496;-21.974;-46.800;2023-03-01T07:30:24;4.47;;;1.55;;
49590;SDS011;35496;-21.974;-46.800;2023-03-01T07:32:54;2.63;;;1.52;;
49590;SDS011;35496;-21.974;-46.800;2023-03-01T07:35:20;5.45;;;1.48;;
49590;SDS011;35496;-21.974;-46.800;2023-03-01T07:37:46;4.45;;;1.52;;
49590;SDS011;35496;-21.974;-46.800;2023-03-01T07:40:12;1.42;;;1.25;;
49590;SDS011;35496;-21.974;-46.800;2023-03-01T07:42:39;1.40;;;1.10;;
49590;SDS011;35496;-21.974;-46.800;2023-03-01T07:45:05;1.52;;;1.27;;
49590;SDS011;35496;-21.974;-46.800;2023-03-01T07:47:31;2.65;;;1.05;;
49590;SDS011;35496;-21.974;-46.800;2023-03-01T07:49:59;2.55;;;1.73;;
49590;SDS011;35496;-21.974;-46.800;2023-03-01T07:52:26;1.85;;;1.00;;
49590;SDS011;35496;-21.974;-46.800;2023-03-01T07:54:52;2.97;;;1.67;;
49590;SDS011;35496;-21.974;-46.800;2023-03-01T07:57:18;2.03;;;1.15;;
49590;SDS011;35496;-21.974;-46.800;2023-03-01T07:59:44;2.83;;;1.55;;
49590;SDS011;35496;-21.974;-46.800;2023-03-01T08:02:10;2.60;;;1.90;;
49590;SDS011;35496;-21.974;-46.800;2023-03-01T08:04:36;5.20;;;1.65;;
49590;SDS011;35496;-21.974;-46.800;2023-03-01T08:07:04;3.55;;;1.15;;
49590;SDS011;35496;-21.974;-46.800;2023-03-01T08:09:31;3.10;;;1.70;;
49590;SDS011;35496;-21.974;-46.800;2023-03-01T08:11:57;5.78;;;1.65;;
49590;SDS011;35496;-21.974;-46.800;2023-03-01T08:14:26;2.72;;;1.90;;
49590;SDS011;35496;-21.974;-46.800;2023-03-01T08:16:52;4.55;;;4.10;;
49590;SDS011;35496;-21.974;-46.800;2023-03-01T08:19:18;11.73;;;4.57;;
49590;SDS011;35496;-21.974;-46.800;2023-03-01T08:21:45;9.85;;;5.93;;
49590;SDS011;35496;-21.974;-46.800;2023-03-01T08:24:11;6.60;;;4.78;;
49590;SDS011;35496;-21.974;-46.800;2023-03-01T08:26:37;19.17;;;7.20;;
49590;SDS011;35496;-21.974;-46.800;2023-03-01T08:29:04;16.23;;;7.93;;
49590;SDS011;35496;-21.974;-46.800;2023-03-01T08:31:37;16.55;;;8.25;;
49590;SDS011;35496;-21.974;-46.800;2023-03-01T08:34:05;13.38;;;8.00;;
49590;SDS011;35496;-21.974;-46.800;2023-03-01T08:36:33;15.60;;;6.38;;
49590;SDS011;35496;-21.974;-46.800;2023-03-01T08:39:00;13.43;;;6.45;;
49590;SDS011;35496;-21.974;-46.800;2023-03-01T08:41:26;7.07;;;5.15;;
49590;SDS011;35496;-21.974;-46.800;2023-03-01T08:43:53;9.27;;;5.40;;
49590;SDS011;35496;-21.974;-46.800;2023-03-01T08:46:26;15.23;;;5.88;;
49590;SDS011;35496;-21.974;-46.800;2023-03-01T08:48:52;11.38;;;6.88;;
49590;SDS011;35496;-21.974;-46.800;2023-03-01T08:51:19;17.23;;;6.82;;
49590;SDS011;35496;-21.974;-46.800;2023-03-01T08:53:45;13.50;;;6.93;;
49590;SDS011;35496;-21.974;-46.800;2023-03-01T08:56:11;10.70;;;7.43;;
49590;SDS011;35496;-21.974;-46.800;2023-03-01T08:58:37;14.27;;;7.72;;
49590;SDS011;35496;-21.974;-46.800;2023-03-01T09:01:09;9.85;;;6.95;;
49590;SDS011;35496;-21.974;-46.800;2023-03-01T09:03:35;18.48;;;9.70;;
49590;SDS011;35496;-21.974;-46.800;2023-03-01T09:06:01;17.55;;;10.32;;
49590;SDS011;35496;-21.974;-46.800;2023-03-01T09:08:28;13.90;;;7.97;;
49590;SDS011;35496;-21.974;-46.800;2023-03-01T09:10:54;6.78;;;6.03;;
49590;SDS011;35496;-21.974;-46.800;2023-03-01T09:13:20;23.67;;;4.38;;
49590;SDS011;35496;-21.974;-46.800;2023-03-01T09:15:49;3.05;;;2.80;;
49590;SDS011;35496;-21.974;-46.800;2023-03-01T09:18:15;6.70;;;2.58;;
49590;SDS011;35496;-21.974;-46.800;2023-03-01T09:20:41;3.50;;;2.63;;
49590;SDS011;35496;-21.974;-46.800;2023-03-01T09:23:07;4.18;;;2.55;;
49590;SDS011;35496;-21.974;-46.800;2023-03-01T09:25:33;3.95;;;2.47;;
49590;SDS011;35496;-21.974;-46.800;2023-03-01T09:28:00;2.45;;;2.13;;
49590;SDS011;35496;-21.974;-46.800;2023-03-01T09:30:26;4.22;;;1.83;;
49590;SDS011;35496;-21.974;-46.800;2023-03-01T09:32:52;6.38;;;2.25;;
49590;SDS011;35496;-21.974;-46.800;2023-03-01T09:35:18;3.53;;;1.60;;
49590;SDS011;35496;-21.974;-46.800;2023-03-01T09:37:45;2.38;;;1.80;;
49590;SDS011;35496;-21.974;-46.800;2023-03-01T09:40:12;5.57;;;2.72;;
49590;SDS011;35496;-21.974;-46.800;2023-03-01T09:42:45;4.13;;;1.75;;
49590;SDS011;35496;-21.974;-46.800;2023-03-01T09:45:15;4.00;;;1.77;;
49590;SDS011;35496;-21.974;-46.800;2023-03-01T09:47:45;2.90;;;1.90;;
49590;SDS011;35496;-21.974;-46.800;2023-03-01T09:50:16;4.30;;;1.80;;
49590;SDS011;35496;-21.974;-46.800;2023-03-01T09:52:43;2.15;;;1.80;;
49590;SDS011;35496;-21.974;-46.800;2023-03-01T09:55:12;3.53;;;2.65;;
49590;SDS011;35496;-21.974;-46.800;2023-03-01T09:58:00;5.10;;;1.98;;
49590;SDS011;35496;-21.974;-46.800;2023-03-01T10:05:29;6.07;;;3.05;;
49590;SDS011;35496;-21.974;-46.800;2023-03-01T10:10:43;8.13;;;4.55;;
49590;SDS011;35496;-21.974;-46.800;2023-03-01T10:13:17;9.20;;;4.05;;
49590;SDS011;35496;-21.974;-46.800;2023-03-01T10:15:53;2.67;;;2.38;;
49590;SDS011;35496;-21.974;-46.800;2023-03-01T10:18:30;3.05;;;2.50;;
49590;SDS011;35496;-21.974;-46.800;2023-03-01T10:21:02;3.65;;;2.58;;
49590;SDS011;35496;-21.974;-46.800;2023-03-01T10:23:30;5.78;;;2.20;;
49590;SDS011;35496;-21.974;-46.800;2023-03-01T10:28:25;3.80;;;1.95;;
49590;SDS011;35496;-21.974;-46.800;2023-03-01T10:30:52;5.05;;;1.98;;
49590;SDS011;35496;-21.974;-46.800;2023-03-01T10:33:29;5.07;;;2.15;;
49590;SDS011;35496;-21.974;-46.800;2023-03-01T10:35:56;3.03;;;2.47;;
49590;SDS011;35496;-21.974;-46.800;2023-03-01T10:38:22;10.07;;;2.88;;
49590;SDS011;35496;-21.974;-46.800;2023-03-01T10:40:55;8.70;;;2.47;;
49590;SDS011;35496;-21.974;-46.800;2023-03-01T10:43:25;6.43;;;2.85;;
49590;SDS011;35496;-21.974;-46.800;2023-03-01T10:45:52;3.50;;;2.35;;
49590;SDS011;35496;-21.974;-46.800;2023-03-01T10:48:20;8.77;;;3.08;;
49590;SDS011;35496;-21.974;-46.800;2023-03-01T10:53:32;7.88;;;2.30;;
49590;SDS011;35496;-21.974;-46.800;2023-03-01T10:56:05;4.07;;;3.33;;
49590;SDS011;35496;-21.974;-46.800;2023-03-01T10:58:32;8.65;;;3.60;;
49590;SDS011;35496;-21.974;-46.800;2023-03-01T11:01:00;5.85;;;2.85;;
49590;SDS011;35496;-21.974;-46.800;2023-03-01T11:03:27;14.07;;;3.35;;
49590;SDS011;35496;-21.974;-46.800;2023-03-01T11:05:56;4.65;;;2.72;;
49590;SDS011;35496;-21.974;-46.800;2023-03-01T11:08:29;5.35;;;2.42;;
49590;SDS011;35496;-21.974;-46.800;2023-03-01T11:13:46;4.63;;;3.92;;
49590;SDS011;35496;-21.974;-46.800;2023-03-01T11:16:13;4.78;;;3.03;;
49590;SDS011;35496;-21.974;-46.800;2023-03-01T11:18:39;9.52;;;3.60;;
49590;SDS011;35496;-21.974;-46.800;2023-03-01T11:21:05;5.10;;;2.50;;
49590;SDS011;35496;-21.974;-46.800;2023-03-01T11:23:33;3.25;;;2.97;;
49590;SDS011;35496;-21.974;-46.800;2023-03-01T11:26:02;3.08;;;2.20;;
49590;SDS011;35496;-21.974;-46.800;2023-03-01T11:28:30;7.43;;;3.65;;
49590;SDS011;35496;-21.974;-46.800;2023-03-01T11:39:05;3.10;;;2.45;;
49590;SDS011;35496;-21.974;-46.800;2023-03-01T11:41:34;8.45;;;2.97;;
49590;SDS011;35496;-21.974;-46.800;2023-03-01T12:00:15;12.10;;;3.17;;
49590;SDS011;35496;-21.974;-46.800;2023-03-01T12:02:59;5.72;;;3.00;;
49590;SDS011;35496;-21.974;-46.800;2023-03-01T12:13:41;4.38;;;3.33;;
49590;SDS011;35496;-21.974;-46.800;2023-03-01T12:16:31;2.92;;;2.67;;
49590;SDS011;35496;-21.974;-46.800;2023-03-01T12:24:10;28.45;;;10.13;;
49590;SDS011;35496;-21.974;-46.800;2023-03-01T12:26:44;30.27;;;11.65;;
49590;SDS011;35496;-21.974;-46.800;2023-03-01T12:37:05;2.35;;;1.60;;
49590;SDS011;35496;-21.974;-46.800;2023-03-01T12:40:01;3.25;;;1.55;;
49590;SDS011;35496;-21.974;-46.800;2023-03-01T12:47:51;5.32;;;2.08;;
49590;SDS011;35496;-21.974;-46.800;2023-03-01T12:50:26;5.97;;;2.33;;
49590;SDS011;35496;-21.974;-46.800;2023-03-01T12:52:57;4.68;;;3.05;;
49590;SDS011;35496;-21.974;-46.800;2023-03-01T12:55:29;4.40;;;2.65;;
49590;SDS011;35496;-21.974;-46.800;2023-03-01T13:00:43;3.95;;;3.63;;
49590;SDS011;35496;-21.974;-46.800;2023-03-01T13:08:32;3.38;;;2.80;;
49590;SDS011;35496;-21.974;-46.800;2023-03-01T13:11:02;9.70;;;3.08;;
49590;SDS011;35496;-21.974;-46.800;2023-03-01T13:13:29;7.40;;;3.28;;
49590;SDS011;35496;-21.974;-46.800;2023-03-01T13:15:55;3.97;;;2.30;;
49590;SDS011;35496;-21.974;-46.800;2023-03-01T13:20:52;3.47;;;2.05;;
49590;SDS011;35496;-21.974;-46.800;2023-03-01T13:28:49;4.75;;;2.20;;
49590;SDS011;35496;-21.974;-46.800;2023-03-01T13:46:39;3.40;;;2.60;;
49590;SDS011;35496;-21.974;-46.800;2023-03-01T13:49:09;5.47;;;2.20;;
49590;SDS011;35496;-21.974;-46.800;2023-03-01T13:51:38;3.75;;;2.60;;
49590;SDS011;35496;-21.974;-46.800;2023-03-01T13:54:04;4.32;;;2.83;;
49590;SDS011;35496;-21.974;-46.800;2023-03-01T13:56:35;5.57;;;3.40;;
49590;SDS011;35496;-21.974;-46.800;2023-03-01T13:59:02;5.43;;;2.83;;
49590;SDS011;35496;-21.974;-46.800;2023-03-01T14:01:34;5.38;;;2.65;;
49590;SDS011;35496;-21.974;-46.800;2023-03-01T14:04:01;2.97;;;1.98;;
49590;SDS011;35496;-21.974;-46.800;2023-03-01T14:06:28;2.35;;;2.15;;
49590;SDS011;35496;-21.974;-46.800;2023-03-01T14:14:32;2.58;;;1.50;;
49590;SDS011;35496;-21.974;-46.800;2023-03-01T14:19:30;3.65;;;1.80;;
49590;SDS011;35496;-21.974;-46.800;2023-03-01T14:24:31;2.20;;;1.23;;
49590;SDS011;35496;-21.974;-46.800;2023-03-01T14:27:01;3.85;;;2.65;;
49590;SDS011;35496;-21.974;-46.800;2023-03-01T14:29:34;3.05;;;1.95;;
49590;SDS011;35496;-21.974;-46.800;2023-03-01T14:34:49;4.82;;;1.88;;
49590;SDS011;35496;-21.974;-46.800;2023-03-01T14:37:22;3.05;;;2.35;;
49590;SDS011;35496;-21.974;-46.800;2023-03-01T14:39:50;3.47;;;2.03;;
49590;SDS011;35496;-21.974;-46.800;2023-03-01T14:42:16;3.35;;;1.65;;
49590;SDS011;35496;-21.974;-46.800;2023-03-01T14:44:43;5.88;;;2.58;;
49590;SDS011;35496;-21.974;-46.800;2023-03-01T14:49:49;2.28;;;1.70;;
49590;SDS011;35496;-21.974;-46.800;2023-03-01T14:52:18;2.58;;;1.80;;
49590;SDS011;35496;-21.974;-46.800;2023-03-01T14:54:50;3.10;;;1.50;;
49590;SDS011;35496;-21.974;-46.800;2023-03-01T14:59:42;2.97;;;1.42;;
49590;SDS011;35496;-21.974;-46.800;2023-03-01T15:02:11;2.40;;;1.05;;
49590;SDS011;35496;-21.974;-46.800;2023-03-01T15:04:43;1.90;;;1.80;;
49590;SDS011;35496;-21.974;-46.800;2023-03-01T15:07:09;1.52;;;1.33;;
49590;SDS011;35496;-21.974;-46.800;2023-03-01T15:09:39;1.30;;;1.20;;
49590;SDS011;35496;-21.974;-46.800;2023-03-01T15:12:25;5.50;;;1.70;;
49590;SDS011;35496;-21.974;-46.800;2023-03-01T15:14:51;3.13;;;1.90;;
49590;SDS011;35496;-21.974;-46.800;2023-03-01T15:17:37;2.45;;;2.08;;
49590;SDS011;35496;-21.974;-46.800;2023-03-01T15:20:06;5.15;;;2.08;;
49590;SDS011;35496;-21.974;-46.800;2023-03-01T15:22:32;2.70;;;1.90;;
49590;SDS011;35496;-21.974;-46.800;2023-03-01T15:24:58;4.47;;;2.58;;
49590;SDS011;35496;-21.974;-46.800;2023-03-01T15:27:25;2.45;;;2.13;;
49590;SDS011;35496;-21.974;-46.800;2023-03-01T15:29:52;4.15;;;1.58;;
49590;SDS011;35496;-21.974;-46.800;2023-03-01T15:34:58;4.25;;;1.70;;
49590;SDS011;35496;-21.974;-46.800;2023-03-01T15:40:24;6.47;;;2.03;;
49590;SDS011;35496;-21.974;-46.800;2023-03-01T15:42:57;2.20;;;1.85;;
49590;SDS011;35496;-21.974;-46.800;2023-03-01T15:45:24;5.57;;;1.77;;
49590;SDS011;35496;-21.974;-46.800;2023-03-01T15:47:53;6.90;;;2.63;;
49590;SDS011;35496;-21.974;-46.800;2023-03-01T15:50:29;5.40;;;1.98;;
49590;SDS011;35496;-21.974;-46.800;2023-03-01T15:52:57;4.88;;;2.28;;
49590;SDS011;35496;-21.974;-46.800;2023-03-01T15:55:28;2.78;;;2.00;;
49590;SDS011;35496;-21.974;-46.800;2023-03-01T15:57:59;1.60;;;1.50;;
49590;SDS011;35496;-21.974;-46.800;2023-03-01T16:00:26;3.83;;;2.08;;
49590;SDS011;35496;-21.974;-46.800;2023-03-01T16:02:52;1.90;;;1.80;;
49590;SDS011;35496;-21.974;-46.800;2023-03-01T16:05:20;3.50;;;2.28;;
49590;SDS011;35496;-21.974;-46.800;2023-03-01T16:07:46;3.38;;;2.50;;
49590;SDS011;35496;-21.974;-46.800;2023-03-01T16:10:12;3.97;;;2.40;;
49590;SDS011;35496;-21.974;-46.800;2023-03-01T16:12:38;4.30;;;2.28;;
49590;SDS011;35496;-21.974;-46.800;2023-03-01T16:15:10;2.35;;;1.52;;
49590;SDS011;35496;-21.974;-46.800;2023-03-01T16:17:38;2.97;;;1.60;;
49590;SDS011;35496;-21.974;-46.800;2023-03-01T16:20:04;7.47;;;2.88;;
49590;SDS011;35496;-21.974;-46.800;2023-03-01T16:22:30;3.50;;;2.53;;
49590;SDS011;35496;-21.974;-46.800;2023-03-01T16:24:56;3.45;;;2.10;;
49590;SDS011;35496;-21.974;-46.800;2023-03-01T16:27:23;5.50;;;1.70;;
49590;SDS011;35496;-21.974;-46.800;2023-03-01T16:29:49;3.67;;;2.33;;
49590;SDS011;35496;-21.974;-46.800;2023-03-01T16:32:15;3.90;;;2.05;;